createdAt,value
2022-08-17T00:00:06.016Z,87.43
2022-08-17T00:01:06.999Z,87.22
2022-08-17T00:02:18.720Z,86.5
2022-08-17T00:03:12.675Z,86.47
2022-08-17T00:04:11.923Z,86.53
2022-08-17T00:05:11.030Z,86.63
2022-08-17T00:06:12.777Z,87.24
2022-08-17T00:07:10.960Z,86.88
2022-08-17T00:08:12.041Z,86.99
2022-08-17T00:09:11.117Z,87.25
2022-08-17T00:10:15.144Z,87.63
2022-08-17T00:12:43.514Z,87.44
2022-08-17T00:14:22.993Z,87.42
2022-08-17T00:15:23.319Z,87.69
2022-08-17T00:16:56.149Z,87.39
2022-08-17T00:17:26.612Z,87.33
2022-08-17T00:19:01.851Z,87.67
2022-08-17T00:19:28.815Z,87.37
2022-08-17T00:20:32.057Z,87.45
2022-08-17T00:22:29.598Z,87.31
2022-08-17T00:22:36.406Z,87.34
2022-08-17T00:23:34.171Z,87.18
2022-08-17T00:24:33.722Z,86.16
2022-08-17T00:25:34.007Z,86.46
2022-08-17T00:26:44.145Z,87.16
2022-08-17T00:27:36.431Z,87.04
2022-08-17T00:28:37.068Z,86.92
2022-08-17T00:29:36.573Z,86.93
2022-08-17T00:30:51.335Z,87.03
2022-08-17T00:31:40.435Z,87.06
2022-08-17T00:33:12.667Z,87.08
2022-08-17T00:33:42.268Z,87.23
2022-08-17T00:34:42.195Z,87.19
2022-08-17T00:35:43.229Z,87.49
2022-08-17T00:36:42.209Z,87.58
2022-08-17T00:37:42.172Z,87.34
2022-08-17T00:38:42.622Z,86.71
2022-08-17T00:39:42.291Z,87.31
2022-08-17T00:40:44.803Z,87.72
2022-08-17T00:41:42.808Z,88.08
2022-08-17T00:42:43.295Z,88.22
2022-08-17T00:43:46.380Z,87.46
2022-08-17T00:44:43.043Z,87.25
2022-08-17T00:45:43.054Z,87.86
2022-08-17T00:46:43.686Z,88.18
2022-08-17T00:47:42.961Z,87.78
2022-08-17T00:48:43.276Z,87.32
2022-08-17T00:49:42.973Z,86.87
2022-08-17T00:50:49.963Z,87.08
2022-08-17T00:51:52.723Z,87.62
2022-08-17T00:52:54.720Z,88.12
2022-08-17T00:53:54.182Z,88.14
2022-08-17T00:54:53.672Z,88.31
2022-08-17T00:55:51.385Z,88.43
2022-08-17T00:56:53.686Z,88.43
2022-08-17T00:57:55.546Z,88.49
2022-08-17T00:58:54.500Z,88.67
2022-08-17T01:00:03.070Z,88.96
2022-08-17T01:00:55.251Z,89.21
2022-08-17T01:01:55.220Z,89.53
2022-08-17T01:03:00.442Z,89.29
2022-08-17T01:03:59.894Z,89.19
2022-08-17T01:04:57.054Z,88.56
2022-08-17T01:05:58.746Z,88.45
2022-08-17T01:06:58.243Z,88.47
2022-08-17T01:07:58.823Z,88.54
2022-08-17T01:08:58.469Z,88.58
2022-08-17T01:09:57.267Z,89.19
2022-08-17T01:11:01.799Z,89.36
2022-08-17T01:11:58.789Z,89.11
2022-08-17T01:13:00.533Z,89
2022-08-17T01:13:58.620Z,88.7
2022-08-17T01:14:58.640Z,88.87
2022-08-17T01:16:00.642Z,88.85
2022-08-17T01:16:58.727Z,88.61
2022-08-17T01:17:58.909Z,88.62
2022-08-17T01:19:00.286Z,88.29
2022-08-17T01:19:58.912Z,88.09
2022-08-17T01:21:01.936Z,88.5
2022-08-17T01:23:03.405Z,88.38
2022-08-17T01:24:03.751Z,88.84
2022-08-17T01:25:06.137Z,88.58
2022-08-17T01:26:04.094Z,88.64
2022-08-17T01:27:03.998Z,88.06
2022-08-17T01:28:07.393Z,88.02
2022-08-17T01:29:07.547Z,87.75
2022-08-17T01:30:58.658Z,88.28
2022-08-17T01:31:11.522Z,88.7
2022-08-17T01:32:11.924Z,88.53
2022-08-17T01:33:11.577Z,88.8
2022-08-17T01:34:12.812Z,88.88
2022-08-17T01:35:11.523Z,88.84
2022-08-17T01:36:11.559Z,89.1
2022-08-17T01:37:12.699Z,89.3
2022-08-17T01:38:11.534Z,89.46
2022-08-17T01:41:13.919Z,89.95
2022-08-17T01:43:18.120Z,90.44
2022-08-17T01:44:16.368Z,90.22
2022-08-17T01:45:16.753Z,90.55
2022-08-17T01:46:15.914Z,90.57
2022-08-17T01:47:14.738Z,90.61
2022-08-17T01:48:14.772Z,90.62
2022-08-17T01:49:14.878Z,91.78
2022-08-17T01:50:17.795Z,91.01
2022-08-17T01:51:15.724Z,90.8
2022-08-17T01:52:15.381Z,91.07
2022-08-17T01:53:22.496Z,91.36
2022-08-17T01:54:19.974Z,91.85
2022-08-17T01:55:27.210Z,92.14
2022-08-17T01:56:21.491Z,92.36
2022-08-17T01:57:19.095Z,92.49
2022-08-17T01:58:19.264Z,92.7
2022-08-17T01:59:19.782Z,92.26
2022-08-17T02:00:19.124Z,92
2022-08-17T02:01:20.753Z,92.04
2022-08-17T02:02:30.482Z,92.45
2022-08-17T02:03:24.105Z,92.35
2022-08-17T02:04:23.052Z,92.34
2022-08-17T02:05:23.034Z,92.03
2022-08-17T02:06:27.621Z,92.48
2022-08-17T02:07:26.911Z,93.46
2022-08-17T02:08:37.324Z,93.85
2022-08-17T02:09:29.658Z,93.33
2022-08-17T02:10:32.899Z,92.7
2022-08-17T02:11:33.716Z,93.17
2022-08-17T02:12:38.576Z,93.52
2022-08-17T02:13:32.248Z,93.38
2022-08-17T02:14:31.884Z,93.54
2022-08-17T02:15:32.297Z,93.05
2022-08-17T02:16:37.715Z,92.58
2022-08-17T02:17:35.401Z,93.37
2022-08-17T02:18:35.395Z,94.16
2022-08-17T02:19:35.289Z,94.54
2022-08-17T02:20:42.089Z,94.59
2022-08-17T02:21:40.778Z,95
2022-08-17T02:22:40.822Z,95.27
2022-08-17T02:23:41.725Z,95.07
2022-08-17T02:24:59.706Z,95.22
2022-08-17T02:25:44.666Z,95.27
2022-08-17T02:26:41.523Z,95.4
2022-08-17T02:27:41.339Z,95.31
2022-08-17T02:28:41.332Z,95.19
2022-08-17T02:29:41.416Z,94.37
2022-08-17T02:31:00.252Z,94.53
2022-08-17T02:31:43.835Z,94.94
2022-08-17T02:32:43.735Z,95.25
2022-08-17T02:33:43.815Z,94.83
2022-08-17T02:34:43.661Z,94.76
2022-08-17T02:35:43.636Z,94.85
2022-08-17T02:36:43.661Z,94.78
2022-08-17T02:37:43.677Z,95.02
2022-08-17T02:38:45.381Z,95.26
2022-08-17T02:39:45.965Z,95.17
2022-08-17T02:40:45.370Z,95.13
2022-08-17T02:41:45.489Z,95.39
2022-08-17T02:42:46.130Z,95.17
2022-08-17T02:43:45.430Z,95.8
2022-08-17T02:44:45.527Z,95.46
2022-08-17T02:45:45.575Z,95.73
2022-08-17T02:46:45.632Z,95.94
2022-08-17T02:47:46.548Z,95.98
2022-08-17T02:48:45.634Z,95.86
2022-08-17T02:49:54.170Z,95.86
2022-08-17T02:50:47.169Z,96.13
2022-08-17T02:51:47.718Z,95.75
2022-08-17T02:53:02.331Z,95.73
2022-08-17T02:53:50.109Z,95.48
2022-08-17T02:54:49.847Z,95.55
2022-08-17T02:55:49.848Z,95.55
2022-08-17T02:56:49.860Z,95.66
2022-08-17T02:57:50.513Z,95.76
2022-08-17T02:58:49.949Z,96.51
2022-08-17T02:59:49.888Z,95.79
2022-08-17T03:00:49.963Z,95.95
2022-08-17T03:01:50.350Z,96.3
2022-08-17T03:02:50.956Z,95.44
2022-08-17T03:03:49.900Z,94.64
2022-08-17T03:04:49.971Z,94.91
2022-08-17T03:05:50.416Z,94.86
2022-08-17T03:06:50.009Z,94.87
2022-08-17T03:07:50.662Z,94.82
2022-08-17T03:08:50.095Z,95.22
2022-08-17T03:09:50.195Z,95.63
2022-08-17T03:10:50.429Z,95.71
2022-08-17T03:11:50.285Z,95.66
2022-08-17T03:12:50.761Z,95.77
2022-08-17T03:13:50.283Z,95.31
2022-08-17T03:14:50.285Z,95.29
2022-08-17T03:15:50.674Z,94.9
2022-08-17T03:16:50.377Z,94.9
2022-08-17T03:17:50.776Z,94.85
2022-08-17T03:18:50.414Z,95.23
2022-08-17T03:19:50.312Z,95.2
2022-08-17T03:20:50.394Z,94.95
2022-08-17T03:21:55.193Z,94.86
2022-08-17T03:22:53.871Z,94.77
2022-08-17T03:23:54.455Z,94.56
2022-08-17T03:24:52.601Z,94.36
2022-08-17T03:25:53.781Z,94.54
2022-08-17T03:26:52.620Z,94.8
2022-08-17T03:27:53.462Z,94.61
2022-08-17T03:28:52.600Z,94.95
2022-08-17T03:29:53.266Z,95.08
2022-08-17T03:30:52.801Z,95.17
2022-08-17T03:31:52.709Z,95.22
2022-08-17T03:32:53.928Z,95.51
2022-08-17T03:33:52.654Z,95.45
2022-08-17T03:34:57.533Z,95.27
2022-08-17T03:35:54.698Z,95.03
2022-08-17T03:36:54.465Z,94.8
2022-08-17T03:38:00.228Z,94.71
2022-08-17T03:38:57.999Z,94.67
2022-08-17T03:39:58.247Z,94.76
2022-08-17T03:40:59.937Z,94.62
2022-08-17T03:42:08.195Z,94.51
2022-08-17T03:43:04.643Z,94.48
2022-08-17T03:44:01.921Z,94.63
2022-08-17T03:45:02.584Z,94.55
2022-08-17T03:46:02.618Z,94.63
2022-08-17T03:47:01.578Z,94.58
2022-08-17T03:48:01.919Z,94.5
2022-08-17T03:49:02.937Z,94.63
2022-08-17T03:50:01.890Z,94.65
2022-08-17T03:51:01.699Z,94.49
2022-08-17T03:52:01.685Z,94.5
2022-08-17T03:53:05.349Z,94.38
2022-08-17T03:54:02.458Z,94
2022-08-17T03:55:03.825Z,94.18
2022-08-17T03:56:04.604Z,94.46
2022-08-17T03:57:05.106Z,94.56
2022-08-17T03:58:03.534Z,94.53
2022-08-17T03:59:03.526Z,94.65
2022-08-17T04:00:04.206Z,94.73
2022-08-17T04:01:04.611Z,94.97
2022-08-17T04:02:08.289Z,94.89
2022-08-17T04:03:05.090Z,94.98
2022-08-17T04:04:05.761Z,95.19
2022-08-17T04:05:05.660Z,95.38
2022-08-17T04:06:05.534Z,95.7
2022-08-17T04:07:05.636Z,95.96
2022-08-17T04:08:05.478Z,96.05
2022-08-17T04:09:05.396Z,96.19
2022-08-17T04:10:05.799Z,96.25
2022-08-17T04:11:05.521Z,96.28
2022-08-17T04:12:05.682Z,96.42
2022-08-17T04:13:05.456Z,96.37
2022-08-17T04:14:06.287Z,96.38
2022-08-17T04:15:05.775Z,96.47
2022-08-17T04:16:05.763Z,96.43
2022-08-17T04:17:05.498Z,96.37
2022-08-17T04:18:07.448Z,96.21
2022-08-17T04:19:06.166Z,96.13
2022-08-17T04:20:05.804Z,96.08
2022-08-17T04:21:08.393Z,95.95
2022-08-17T04:22:05.382Z,95.88
2022-08-17T04:23:08.311Z,95.78
2022-08-17T04:24:05.831Z,95.55
2022-08-17T04:25:09.908Z,95.23
2022-08-17T04:26:06.920Z,94.91
2022-08-17T04:27:06.904Z,94.61
2022-08-17T04:28:09.039Z,94.43
2022-08-17T04:29:08.512Z,94.11
2022-08-17T04:30:09.042Z,93.81
2022-08-17T04:31:12.174Z,93.75
2022-08-17T04:32:09.255Z,93.57
2022-08-17T04:33:11.107Z,93.02
2022-08-17T04:34:09.458Z,92.85
2022-08-17T04:35:09.296Z,92.64
2022-08-17T04:36:09.484Z,92.68
2022-08-17T04:37:09.168Z,92.61
2022-08-17T04:38:11.457Z,92.15
2022-08-17T04:39:09.303Z,92.01
2022-08-17T04:40:09.783Z,92.03
2022-08-17T04:41:09.853Z,91.69
2022-08-17T04:42:09.370Z,91.6
2022-08-17T04:43:13.937Z,91.56
2022-08-17T04:44:10.885Z,91.7
2022-08-17T04:45:11.257Z,92.03
2022-08-17T04:46:12.453Z,91.43
2022-08-17T04:47:10.875Z,91.39
2022-08-17T04:48:11.186Z,91.23
2022-08-17T04:49:11.200Z,91.5
2022-08-17T04:50:11.156Z,91.39
2022-08-17T04:51:15.614Z,90.96
2022-08-17T04:52:12.583Z,90.96
2022-08-17T04:53:14.464Z,90.97
2022-08-17T04:54:15.777Z,90.8
2022-08-17T04:55:14.863Z,90.5
2022-08-17T04:56:16.644Z,90.5
2022-08-17T04:57:14.683Z,90.72
2022-08-17T04:58:14.515Z,90.66
2022-08-17T04:59:16.004Z,90.66
2022-08-17T05:00:14.761Z,90.58
2022-08-17T05:01:15.328Z,90.88
2022-08-17T05:02:14.670Z,90.63
2022-08-17T05:03:14.558Z,90.46
2022-08-17T05:04:33.110Z,90.55
2022-08-17T05:06:19.340Z,90.82
2022-08-17T05:07:23.510Z,90.37
2022-08-17T05:08:21.573Z,89.94
2022-08-17T05:09:21.266Z,89.7
2022-08-17T05:10:21.662Z,90.06
2022-08-17T05:11:21.541Z,90.1
2022-08-17T05:12:21.381Z,90.17
2022-08-17T05:13:23.151Z,90.55
2022-08-17T05:14:21.414Z,89.96
2022-08-17T05:15:24.801Z,89.91
2022-08-17T05:16:25.967Z,89.68
2022-08-17T05:17:24.831Z,89.51
2022-08-17T05:18:24.999Z,89.21
2022-08-17T05:19:24.763Z,89.02
2022-08-17T05:20:24.991Z,88.8
2022-08-17T05:21:25.056Z,88.79
2022-08-17T05:22:24.880Z,88.82
2022-08-17T05:23:25.919Z,88.79
2022-08-17T05:24:42.684Z,88.68
2022-08-17T05:26:29.360Z,88.15
2022-08-17T05:27:29.303Z,88.06
2022-08-17T05:28:32.041Z,87.8
2022-08-17T05:29:35.229Z,87.73
2022-08-17T05:30:32.325Z,87.46
2022-08-17T05:31:32.388Z,87.05
2022-08-17T05:32:38.457Z,87.15
2022-08-17T05:33:41.456Z,86.49
2022-08-17T05:34:40.464Z,86.27
2022-08-17T05:35:42.256Z,85.63
2022-08-17T05:36:44.146Z,85.56
2022-08-17T05:37:41.111Z,85.09
2022-08-17T05:38:41.096Z,84.57
2022-08-17T05:39:41.148Z,84.35
2022-08-17T05:40:41.553Z,84.23
2022-08-17T05:41:41.086Z,83.96
2022-08-17T05:42:41.126Z,83.94
2022-08-17T05:43:41.877Z,83.65
2022-08-17T05:44:41.079Z,83.72
2022-08-17T05:46:51.394Z,83.28
2022-08-17T05:47:48.465Z,83.24
2022-08-17T05:48:50.205Z,83
2022-08-17T05:49:49.024Z,82.91
2022-08-17T05:55:07.046Z,81.97
2022-08-17T05:56:19.861Z,81.43
2022-08-17T05:58:13.560Z,81.2
2022-08-17T05:59:14.488Z,81.05
2022-08-17T06:00:14.511Z,80.1
2022-08-17T06:16:59.044Z,75.42
2022-08-17T06:17:58.514Z,75.45
2022-08-17T06:20:04.277Z,73.55
2022-08-17T06:21:04.761Z,72.41
2022-08-17T06:22:02.695Z,72.31
2022-08-17T06:23:09.008Z,71.44
2022-08-17T06:25:19.679Z,72.64
2022-08-17T06:26:14.190Z,72.28
2022-08-17T06:28:13.818Z,69.89
2022-08-17T06:30:16.209Z,70.57
2022-08-17T06:31:17.436Z,69.64
2022-08-17T06:32:14.185Z,69.4
2022-08-17T06:33:19.417Z,69.4
2022-08-17T06:34:16.077Z,69.54
2022-08-17T06:35:17.696Z,69.76
2022-08-17T06:38:38.506Z,69.27
2022-08-17T06:45:41.768Z,70.45
2022-08-17T06:46:50.935Z,70.11
2022-08-17T06:48:51.925Z,67.17
2022-08-17T06:50:53.388Z,65.78
2022-08-17T06:54:07.090Z,67.86
2022-08-17T06:55:02.133Z,67.05
2022-08-17T06:56:05.859Z,68.56
2022-08-17T06:57:09.970Z,67.53
2022-08-17T06:58:16.230Z,67.14
2022-08-17T06:59:11.050Z,66.71
2022-08-17T07:00:19.617Z,66.14
2022-08-17T07:01:19.164Z,64.93
2022-08-17T07:02:19.823Z,64.75
2022-08-17T07:03:32.143Z,64.25
2022-08-17T07:04:30.093Z,63.25
2022-08-17T07:05:32.779Z,62.68
2022-08-17T07:06:37.718Z,62.97
2022-08-17T07:07:30.371Z,63.66
2022-08-17T07:09:35.613Z,63.13
2022-08-17T07:10:39.164Z,63.08
2022-08-17T07:11:40.703Z,63.72
2022-08-17T07:12:41.181Z,63.31
2022-08-17T07:13:44.450Z,63.35
2022-08-17T07:15:41.732Z,60.13
2022-08-17T07:16:42.240Z,60.22
2022-08-17T07:17:47.463Z,61.33
2022-08-17T07:18:45.503Z,61.31
2022-08-17T07:19:45.869Z,61.18
2022-08-17T07:20:47.999Z,61.93
2022-08-17T07:22:57.538Z,62.82
2022-08-17T07:24:56.074Z,63.55
2022-08-17T07:25:52.636Z,62.97
2022-08-17T07:27:58.453Z,62.44
2022-08-17T07:28:57.044Z,62.18
2022-08-17T07:30:11.353Z,62.66
2022-08-17T07:30:58.489Z,61.46
2022-08-17T07:31:59.069Z,61.82
2022-08-17T07:33:01.019Z,61.46
2022-08-17T07:34:00.912Z,61.25
2022-08-17T07:36:02.797Z,60.05
2022-08-17T07:37:04.238Z,60.67
2022-08-17T07:38:25.204Z,61.11
2022-08-17T07:39:04.041Z,60.96
2022-08-17T07:41:09.339Z,62.09
2022-08-17T07:42:10.240Z,62.21
2022-08-17T07:44:11.628Z,62.03
2022-08-17T07:45:08.391Z,62.25
2022-08-17T07:47:15.914Z,62.7
2022-08-17T07:50:29.469Z,63.14
2022-08-17T07:51:23.304Z,63.26
2022-08-17T07:52:50.948Z,63.6
2022-08-17T07:53:25.553Z,63.2
2022-08-17T07:54:31.496Z,63.57
2022-08-17T07:55:30.712Z,64.32
2022-08-17T07:56:36.958Z,64.07
2022-08-17T07:57:35.636Z,63.45
2022-08-17T07:58:32.663Z,63.27
2022-08-17T07:59:34.108Z,62.99
2022-08-17T08:00:33.107Z,63.25
2022-08-17T08:01:39.380Z,63.39
2022-08-17T08:02:37.777Z,62.39
2022-08-17T08:03:40.437Z,62.48
2022-08-17T08:04:59.781Z,62.47
2022-08-17T08:06:48.043Z,63.14
2022-08-17T08:08:51.045Z,63.58
2022-08-17T08:11:00.764Z,64.25
2022-08-17T08:11:57.291Z,64.33
2022-08-17T08:13:06.942Z,61.52
2022-08-17T08:15:18.537Z,61.08
2022-08-17T08:17:10.016Z,59.64
2022-08-17T08:19:10.327Z,58.77
2022-08-17T08:20:35.024Z,59
2022-08-17T08:22:21.415Z,57.83
2022-08-17T08:27:39.287Z,58.05
2022-08-17T08:33:56.760Z,58.54
2022-08-17T08:35:05.311Z,58.98
2022-08-17T08:39:06.278Z,59.25
2022-08-17T08:40:10.806Z,59.81
2022-08-17T08:45:00.923Z,59.37
2022-08-17T08:45:28.399Z,59.33
2022-08-17T08:57:45.280Z,57.06
2022-08-17T09:00:54.447Z,57.56
2022-08-17T09:06:37.926Z,56.28
2022-08-17T09:08:27.538Z,55.54
2022-08-17T09:10:30.685Z,55.28
2022-08-17T09:11:26.619Z,55.32
2022-08-17T09:14:32.803Z,53.78
2022-08-17T09:15:38.408Z,54.34
2022-08-17T09:19:00.988Z,53.69
2022-08-17T09:19:48.684Z,54.03
2022-08-17T09:20:50.412Z,56.79
2022-08-17T09:22:50.747Z,54.02
2022-08-17T09:26:00.759Z,51.39
2022-08-17T09:28:06.553Z,51.81
2022-08-17T09:29:08.601Z,52.5
2022-08-17T09:30:09.033Z,52.33
2022-08-17T09:31:11.224Z,53.08
2022-08-17T09:33:09.902Z,52.88
2022-08-17T09:34:15.121Z,53.5
2022-08-17T09:35:21.157Z,53.02
2022-08-17T09:36:20.777Z,53.71
2022-08-17T09:40:25.765Z,53.56
2022-08-17T09:48:54.396Z,51.52
2022-08-17T09:49:55.002Z,50.8
2022-08-17T09:51:58.383Z,50.62
2022-08-17T09:52:57.671Z,50.18
2022-08-17T09:54:05.187Z,50.71
2022-08-17T09:54:57.413Z,50.38
2022-08-17T10:03:20.993Z,51.48
2022-08-17T10:06:24.958Z,50.29
2022-08-17T10:12:47.054Z,53.1
2022-08-17T10:16:55.581Z,51.06
2022-08-17T10:22:33.024Z,49.64
2022-08-17T10:23:11.081Z,49.56
2022-08-17T10:24:07.419Z,49.96
2022-08-17T10:25:22.430Z,48.85
2022-08-17T10:27:13.033Z,49.53
2022-08-17T10:28:19.855Z,48.4
2022-08-17T10:29:20.756Z,48.17
2022-08-17T10:30:16.270Z,48.81
2022-08-17T10:31:34.289Z,48.76
2022-08-17T10:33:23.271Z,48.04
2022-08-17T10:39:52.022Z,47.17
2022-08-17T10:40:53.767Z,46.75
2022-08-17T10:41:45.253Z,46.83
2022-08-17T10:42:51.518Z,46.77
2022-08-17T10:46:10.407Z,46.57
2022-08-17T10:48:05.887Z,45.96
2022-08-17T10:51:01.814Z,46.62
2022-08-17T10:53:01.233Z,46.04
2022-08-17T10:54:01.256Z,46.95
2022-08-17T10:59:07.959Z,46.54
2022-08-17T11:00:12.841Z,47.05
2022-08-17T11:01:09.992Z,48.29
2022-08-17T11:02:20.004Z,47.32
2022-08-17T11:16:58.836Z,46.13
2022-08-17T11:27:23.866Z,44.66
2022-08-17T11:28:18.150Z,44.83
2022-08-17T11:29:20.997Z,44.71
2022-08-17T11:34:26.712Z,43.29
2022-08-17T11:35:32.642Z,44.71
2022-08-17T11:48:09.382Z,45.26
2022-08-17T11:48:54.573Z,45.16
2022-08-17T11:50:00.802Z,44.81
2022-08-17T11:50:55.056Z,44.95
2022-08-17T11:52:57.123Z,47.92
2022-08-17T11:54:21.592Z,48.1
2022-08-17T11:55:17.586Z,47.87
2022-08-17T11:56:03.513Z,45.72
2022-08-17T12:00:06.943Z,45.27
2022-08-17T12:01:07.177Z,45.24
2022-08-17T12:03:21.584Z,45.52
2022-08-17T12:05:25.358Z,45.38
2022-08-17T12:07:22.569Z,45.68
2022-08-17T12:08:21.691Z,46.38
2022-08-17T12:09:30.805Z,45.01
2022-08-17T12:10:25.611Z,46.93
2022-08-17T12:12:27.705Z,44.38
2022-08-17T12:13:30.453Z,45.07
2022-08-17T12:14:45.436Z,45.26
2022-08-17T12:16:32.947Z,43.87
2022-08-17T12:17:40.502Z,45.34
2022-08-17T12:18:36.004Z,44.81
2022-08-17T12:19:35.057Z,45.46
2022-08-17T12:20:39.214Z,45.9
2022-08-17T12:21:40.328Z,46.96
2022-08-17T12:23:44.124Z,45.51
2022-08-17T12:25:47.628Z,44.75
2022-08-17T12:28:05.469Z,45.11
2022-08-17T12:28:50.543Z,44.66
2022-08-17T12:29:48.976Z,44.7
2022-08-17T12:30:50.220Z,43.85
2022-08-17T12:31:50.465Z,43.49
2022-08-17T12:32:48.934Z,43.91
2022-08-17T12:33:49.165Z,42.95
2022-08-17T12:34:49.719Z,43.64
2022-08-17T12:35:48.954Z,43
2022-08-17T12:36:51.026Z,43.6
2022-08-17T12:37:50.543Z,44.72
2022-08-17T12:40:55.160Z,43.96
2022-08-17T12:42:01.426Z,43.95
2022-08-17T12:43:03.603Z,42.91
2022-08-17T12:44:01.663Z,43.22
2022-08-17T12:45:00.619Z,43.27
2022-08-17T12:46:13.310Z,43.17
2022-08-17T12:47:10.233Z,43.49
2022-08-17T12:49:17.149Z,43.1
2022-08-17T12:50:28.955Z,43.38
2022-08-17T12:51:16.983Z,42.48
2022-08-17T12:52:21.814Z,41.61
2022-08-17T12:53:24.167Z,43.29
2022-08-17T12:54:33.635Z,42.48
2022-08-17T12:55:26.272Z,44.61
2022-08-17T12:56:29.608Z,43.15
2022-08-17T12:58:35.769Z,44.29
2022-08-17T12:59:34.081Z,43.63
2022-08-17T13:00:36.811Z,42.69
2022-08-17T13:01:34.436Z,43.21
2022-08-17T13:04:39.598Z,44.16
2022-08-17T13:05:42.033Z,45.58
2022-08-17T13:07:42.620Z,48.62
2022-08-17T13:08:46.520Z,45.69
2022-08-17T13:11:53.741Z,43.73
2022-08-17T13:12:51.406Z,43.72
2022-08-17T13:13:51.733Z,43.9
2022-08-17T13:14:50.283Z,42.98
2022-08-17T13:16:59.167Z,44.35
2022-08-17T13:17:57.291Z,44.86
2022-08-17T13:19:57.626Z,45.27
2022-08-17T13:20:58.506Z,46.02
2022-08-17T13:21:58.816Z,45.01
2022-08-17T13:22:58.841Z,45.96
2022-08-17T13:25:00.361Z,47.88
2022-08-17T13:26:03.275Z,49.04
2022-08-17T13:27:08.703Z,49.2
2022-08-17T13:28:00.922Z,52.28
2022-08-17T13:29:02.333Z,47.87
2022-08-17T13:30:02.241Z,46.94
2022-08-17T13:36:10.015Z,48.69
2022-08-17T13:38:15.249Z,46.55
2022-08-17T13:42:29.960Z,47.98
2022-08-17T13:46:31.965Z,46.52
2022-08-17T13:47:28.693Z,48.65
2022-08-17T13:48:29.333Z,47.59
2022-08-17T13:49:48.248Z,47.03
2022-08-17T13:50:30.886Z,47.56
2022-08-17T13:51:33.814Z,46.29
2022-08-17T13:54:40.695Z,47.03
2022-08-17T13:55:40.273Z,46.53
2022-08-17T13:56:46.374Z,46.69
2022-08-17T13:58:03.994Z,46.68
2022-08-17T13:59:54.992Z,46.16
2022-08-17T14:00:47.490Z,46.99
2022-08-17T14:01:53.615Z,46.73
2022-08-17T14:02:50.663Z,46.99
2022-08-17T14:03:51.492Z,46.55
2022-08-17T14:04:50.657Z,45.8
2022-08-17T14:05:51.542Z,45.96
2022-08-17T14:07:59.660Z,46.86
2022-08-17T14:08:56.242Z,47.64
2022-08-17T14:11:00.295Z,48.08
2022-08-17T14:12:00.698Z,48.45
2022-08-17T14:13:00.194Z,47.9
2022-08-17T14:14:00.380Z,46.95
2022-08-17T14:15:00.612Z,46.84
2022-08-17T14:16:00.306Z,46.63
2022-08-17T14:17:00.259Z,46.61
2022-08-17T14:18:00.431Z,47.49
2022-08-17T14:19:00.319Z,47.4
2022-08-17T14:20:00.230Z,47.89
2022-08-17T14:21:00.460Z,47.05
2022-08-17T14:22:00.487Z,46.34
2022-08-17T14:23:00.344Z,46.74
2022-08-17T14:24:00.428Z,48.18
2022-08-17T14:25:00.757Z,49.08
2022-08-17T14:26:00.571Z,49.11
2022-08-17T14:27:01.666Z,48.77
2022-08-17T14:28:01.062Z,47.98
2022-08-17T14:29:00.570Z,48.51
2022-08-17T14:30:01.434Z,48.55
2022-08-17T14:31:00.940Z,49.62
2022-08-17T14:32:03.488Z,49.15
2022-08-17T14:33:00.443Z,49.6
2022-08-17T14:34:00.617Z,49.79
2022-08-17T14:35:03.703Z,49.38
2022-08-17T14:36:00.608Z,49.12
2022-08-17T14:37:00.539Z,48.59
2022-08-17T14:38:02.782Z,49.44
2022-08-17T14:39:00.681Z,48.29
2022-08-17T14:40:02.477Z,48.14
2022-08-17T14:41:00.736Z,48.3
2022-08-17T14:42:01.338Z,48.15
2022-08-17T14:43:00.936Z,48.04
2022-08-17T14:44:01.026Z,47.6
2022-08-17T14:45:00.693Z,47.93
2022-08-17T14:46:00.962Z,46.78
2022-08-17T14:47:00.771Z,46.77
2022-08-17T14:48:09.711Z,46.38
2022-08-17T14:49:01.549Z,47.15
2022-08-17T14:50:02.134Z,47.08
2022-08-17T14:51:01.724Z,47.29
2022-08-17T14:52:02.048Z,46.48
2022-08-17T14:53:01.981Z,46.46
2022-08-17T14:54:02.033Z,46.12
2022-08-17T14:55:01.817Z,45.1
2022-08-17T14:56:01.800Z,45.5
2022-08-17T14:57:22.220Z,49.12
2022-08-17T14:58:03.314Z,49.71
2022-08-17T14:59:03.621Z,49.13
2022-08-17T15:00:04.557Z,47.8
2022-08-17T15:01:03.480Z,47.43
2022-08-17T15:02:03.430Z,47.29
2022-08-17T15:03:04.193Z,46.43
2022-08-17T15:04:03.622Z,47.18
2022-08-17T15:05:05.073Z,46.92
2022-08-17T15:06:03.861Z,46.72
2022-08-17T15:07:03.893Z,47.33
2022-08-17T15:08:04.241Z,46.54
2022-08-17T15:09:03.524Z,48.77
2022-08-17T15:10:03.946Z,48.45
2022-08-17T15:11:04.050Z,47.82
2022-08-17T15:12:03.913Z,48.64
2022-08-17T15:13:03.804Z,47.6
2022-08-17T15:14:03.571Z,50.26
2022-08-17T15:15:05.445Z,48.69
2022-08-17T15:16:03.960Z,47
2022-08-17T15:17:03.798Z,46.73
2022-08-17T15:18:03.914Z,47.59
2022-08-17T15:19:07.608Z,47.23
2022-08-17T15:20:05.886Z,47.26
2022-08-17T15:21:05.075Z,46.85
2022-08-17T15:22:04.108Z,47.62
2022-08-17T15:23:04.247Z,48.08
2022-08-17T15:24:05.121Z,47.7
2022-08-17T15:25:05.473Z,47.21
2022-08-17T15:26:04.167Z,46.58
2022-08-17T15:27:04.492Z,47.32
2022-08-17T15:28:04.558Z,47.81
2022-08-17T15:29:04.204Z,48.42
2022-08-17T15:30:05.412Z,48.53
2022-08-17T15:31:04.516Z,48.5
2022-08-17T15:32:04.628Z,49.87
2022-08-17T15:33:04.344Z,49.5
2022-08-17T15:34:04.275Z,50.25
2022-08-17T15:35:06.172Z,50.55
2022-08-17T15:36:06.424Z,51.94
2022-08-17T15:37:04.702Z,52.47
2022-08-17T15:38:11.242Z,51.09
2022-08-17T15:39:08.744Z,51.36
2022-08-17T15:40:09.356Z,51.24
2022-08-17T15:41:09.622Z,50.8
2022-08-17T15:42:09.461Z,51.85
2022-08-17T15:43:10.024Z,52.12
2022-08-17T15:44:08.779Z,53.55
2022-08-17T15:45:10.638Z,54.18
2022-08-17T15:46:10.068Z,53.9
2022-08-17T15:47:08.802Z,53.85
2022-08-17T15:48:09.129Z,55.2
2022-08-17T15:49:08.757Z,55.57
2022-08-17T15:50:09.331Z,56.07
2022-08-17T15:53:13.016Z,56.71
2022-08-17T15:54:22.340Z,55.28
2022-08-17T15:55:14.785Z,56.16
2022-08-17T15:56:15.034Z,56.73
2022-08-17T15:57:14.547Z,56.62
2022-08-17T15:58:14.542Z,57.11
2022-08-17T15:59:15.729Z,57.28
2022-08-17T16:00:15.862Z,57.29
2022-08-17T16:01:42.280Z,58.4
2022-08-17T16:03:47.145Z,58.75
2022-08-17T16:03:58.269Z,58.89
2022-08-17T16:04:30.401Z,58.46
2022-08-17T16:05:27.882Z,58.09
2022-08-17T16:06:28.659Z,58.31
2022-08-17T16:07:27.668Z,58.82
2022-08-17T16:08:28.232Z,58.89
2022-08-17T16:09:27.758Z,59.17
2022-08-17T16:10:34.584Z,59.88
2022-08-17T16:11:32.020Z,61.33
2022-08-17T16:12:32.500Z,61.69
2022-08-17T16:13:32.023Z,62.75
2022-08-17T16:14:34.808Z,63
2022-08-17T16:15:32.303Z,62.37
2022-08-17T16:16:32.336Z,62.65
2022-08-17T16:17:39.912Z,65.51
2022-08-17T16:18:32.335Z,64.3
2022-08-17T16:19:32.514Z,65.19
2022-08-17T16:20:32.089Z,65.37
2022-08-17T16:21:42.487Z,65.91
2022-08-17T16:22:39.538Z,66.79
2022-08-17T16:23:36.065Z,66.82
2022-08-17T16:24:37.961Z,67.92
2022-08-17T16:25:52.280Z,66.56
2022-08-17T16:26:41.267Z,67.07
2022-08-17T16:27:41.429Z,66.81
2022-08-17T16:28:41.317Z,66.64
2022-08-17T16:29:41.229Z,67.19
2022-08-17T16:30:41.698Z,67.45
2022-08-17T16:31:41.349Z,67.88
2022-08-17T16:32:41.818Z,68.53
2022-08-17T16:33:43.357Z,69.24
2022-08-17T16:34:44.810Z,69.59
2022-08-17T16:35:44.762Z,69.68
2022-08-17T16:36:53.767Z,70.02
2022-08-17T16:37:47.839Z,70.4
2022-08-17T16:38:47.417Z,70.62
2022-08-17T16:39:47.824Z,70.25
2022-08-17T16:40:47.406Z,70
2022-08-17T16:41:47.438Z,69.22
2022-08-17T16:42:48.562Z,69.53
2022-08-17T16:43:47.422Z,70.33
2022-08-17T16:44:47.507Z,70.16
2022-08-17T16:45:51.860Z,70.24
2022-08-17T16:46:49.178Z,69.73
2022-08-17T16:47:49.039Z,69.67
2022-08-17T16:48:48.671Z,69.62
2022-08-17T16:49:49.517Z,69.37
2022-08-17T16:51:03.106Z,69.83
2022-08-17T16:51:51.527Z,70.25
2022-08-17T16:52:52.120Z,71.24
2022-08-17T16:53:59.419Z,71.48
2022-08-17T16:54:56.957Z,72.42
2022-08-17T16:55:56.752Z,73.47
2022-08-17T16:56:56.742Z,73.08
2022-08-17T16:57:56.754Z,73.11
2022-08-17T16:58:56.660Z,73.24
2022-08-17T17:00:00.276Z,73.16
2022-08-17T17:01:00.174Z,72.96
2022-08-17T17:02:00.090Z,72.69
2022-08-17T17:03:07.831Z,72.98
2022-08-17T17:04:04.801Z,73.36
2022-08-17T17:09:16.893Z,76.2
2022-08-17T17:10:16.420Z,76.49
2022-08-17T17:11:15.523Z,76.24
2022-08-17T17:12:17.598Z,76.85
2022-08-17T17:13:19.253Z,76.87